createdAt,value
2023-02-22T00:02:11.353Z,1.80
2023-02-22T00:09:37.432Z,2.30
2023-02-22T00:12:04.496Z,2.30
2023-02-22T00:14:31.776Z,2.40
2023-02-22T00:16:59.754Z,2.20
2023-02-22T00:19:30.186Z,2.40
2023-02-22T00:24:25.733Z,2.10
2023-02-22T00:26:57.155Z,2.50
2023-02-22T00:29:25.753Z,2.10
2023-02-22T00:31:53.093Z,2.40
2023-02-22T00:34:24.219Z,2.60
2023-02-22T00:36:51.349Z,2.40
2023-02-22T00:39:18.727Z,2.60
2023-02-22T00:41:45.826Z,2.70
2023-02-22T00:44:13.515Z,2.80
2023-02-22T00:46:40.758Z,2.60
2023-02-22T00:54:05.716Z,2.20
2023-02-22T00:56:35.800Z,2.50
2023-02-22T00:59:04.157Z,2.20
2023-02-22T01:01:32.276Z,2.60
2023-02-22T01:03:59.789Z,2.30
2023-02-22T01:06:27.104Z,2.10
2023-02-22T01:08:54.347Z,2.30
2023-02-22T01:13:49.827Z,2.00
2023-02-22T01:18:44.784Z,2.50
2023-02-22T01:21:11.972Z,2.60
2023-02-22T01:23:44.161Z,2.40
2023-02-22T01:26:11.574Z,2.20
2023-02-22T01:28:39.533Z,2.50
2023-02-22T01:33:34.420Z,2.70
2023-02-22T01:36:01.555Z,2.20
2023-02-22T01:38:29.076Z,2.20
2023-02-22T01:41:06.635Z,2.90
2023-02-22T01:43:34.237Z,2.90
2023-02-22T01:46:04.033Z,2.50
2023-02-22T01:48:33.161Z,2.60
2023-02-22T01:51:11.798Z,2.50
2023-02-22T01:53:52.874Z,2.80
2023-02-22T01:56:21.844Z,2.40
2023-02-22T01:58:55.692Z,2.30
2023-02-22T02:01:25.504Z,2.00
2023-02-22T02:04:04.067Z,2.20
2023-02-22T02:06:37.649Z,2.30
2023-02-22T02:09:19.421Z,1.90
2023-02-22T02:11:47.500Z,2.50
2023-02-22T02:14:17.714Z,2.80
2023-02-22T02:16:48.970Z,2.50
2023-02-22T02:19:31.768Z,2.70
2023-02-22T02:22:42.864Z,2.40
2023-02-22T02:25:44.950Z,2.50
2023-02-22T02:28:35.200Z,2.30
2023-02-22T02:31:23.161Z,2.60
2023-02-22T02:34:05.014Z,2.70
2023-02-22T02:36:58.761Z,2.50
2023-02-22T02:39:53.942Z,2.50
2023-02-22T02:42:28.927Z,2.20
2023-02-22T02:45:09.908Z,2.30
2023-02-22T02:47:45.022Z,2.70
2023-02-22T02:50:29.277Z,2.50
2023-02-22T02:53:02.437Z,2.50
2023-02-22T03:00:39.154Z,2.90
2023-02-22T03:03:27.553Z,2.70
2023-02-22T03:06:34.903Z,2.50
2023-02-22T03:09:18.770Z,2.20
2023-02-22T03:12:02.217Z,2.60
2023-02-22T03:14:55.954Z,1.60
2023-02-22T03:17:31.941Z,2.20
2023-02-22T03:20:09.791Z,2.00
2023-02-22T03:22:57.809Z,2.10
2023-02-22T03:25:33.950Z,1.90
2023-02-22T03:28:06.223Z,1.90
2023-02-22T03:31:00.254Z,2.30
2023-02-22T03:33:36.613Z,2.10
2023-02-22T03:36:11.477Z,2.00
2023-02-22T03:38:40.710Z,2.20
2023-02-22T03:41:15.298Z,2.20
2023-02-22T03:43:49.071Z,2.20
2023-02-22T03:46:20.628Z,2.20
2023-02-22T03:48:51.487Z,2.10
2023-02-22T03:51:19.302Z,2.90
2023-02-22T03:53:52.221Z,2.10
2023-02-22T03:56:35.934Z,2.10
2023-02-22T03:59:06.353Z,1.50
2023-02-22T04:01:34.259Z,1.90
2023-02-22T04:04:01.459Z,2.10
2023-02-22T04:06:29.807Z,2.00
2023-02-22T04:11:27.440Z,1.70
2023-02-22T04:13:54.900Z,1.70
2023-02-22T04:16:22.679Z,1.30
2023-02-22T04:18:51.156Z,1.70
2023-02-22T04:21:19.862Z,1.90
2023-02-22T04:23:49.468Z,1.80
2023-02-22T04:26:17.247Z,1.50
2023-02-22T04:28:49.852Z,1.80
2023-02-22T04:31:19.801Z,1.60
2023-02-22T04:33:47.292Z,1.90
2023-02-22T04:36:18.507Z,2.00
2023-02-22T04:38:46.390Z,1.90
2023-02-22T04:41:14.463Z,2.00
2023-02-22T04:43:42.031Z,1.70
2023-02-22T04:46:18.160Z,2.00
2023-02-22T04:48:45.475Z,2.10
2023-02-22T04:51:15.113Z,2.20
2023-02-22T04:53:53.505Z,1.90
2023-02-22T04:56:23.719Z,1.90
2023-02-22T04:58:50.953Z,1.60
2023-02-22T05:01:19.010Z,1.70
2023-02-22T05:03:47.500Z,1.20
2023-02-22T05:06:16.193Z,1.40
2023-02-22T05:08:43.208Z,1.50
2023-02-22T05:11:10.506Z,0.90
2023-02-22T05:13:37.462Z,1.10
2023-02-22T05:16:05.187Z,1.10
2023-02-22T05:18:32.205Z,1.10
2023-02-22T05:20:59.451Z,0.80
2023-02-22T05:23:27.054Z,0.80
2023-02-22T05:25:54.328Z,0.90
2023-02-22T05:28:21.385Z,0.80
2023-02-22T05:30:48.657Z,0.10
2023-02-22T05:33:15.923Z,0.60
2023-02-22T05:35:43.308Z,0.00
2023-02-22T05:38:15.016Z,0.40
2023-02-22T05:40:43.032Z,0.40
2023-02-22T05:43:10.280Z,0.50
2023-02-22T05:45:37.664Z,0.50
2023-02-22T05:48:04.978Z,0.10
2023-02-22T05:50:33.262Z,0.40
2023-02-22T05:53:01.228Z,0.20
2023-02-22T05:57:56.004Z,0.30
2023-02-22T06:00:26.969Z,0.20
2023-02-22T06:03:05.052Z,0.80
2023-02-22T06:08:01.836Z,0.70
2023-02-22T06:10:29.393Z,0.60
2023-02-22T06:12:57.514Z,0.80
2023-02-22T06:15:26.466Z,0.90
2023-02-22T06:17:55.572Z,0.50
2023-02-22T06:20:25.098Z,0.90
2023-02-22T06:22:54.909Z,0.80
2023-02-22T06:25:25.132Z,1.30
2023-02-22T06:27:52.868Z,1.30
2023-02-22T06:30:22.372Z,1.10
2023-02-22T06:32:49.814Z,1.60
2023-02-22T06:35:17.677Z,1.30
2023-02-22T06:37:45.405Z,1.70
2023-02-22T06:40:13.624Z,1.50
2023-02-22T06:42:41.623Z,1.90
2023-02-22T06:45:09.746Z,1.30
2023-02-22T06:47:41.322Z,1.80
2023-02-22T06:50:18.643Z,2.10
2023-02-22T06:52:47.890Z,1.70
2023-02-22T06:55:23.695Z,2.00
2023-02-22T06:57:51.785Z,1.70
2023-02-22T07:00:21.989Z,1.90
2023-02-22T07:02:49.480Z,1.80
2023-02-22T07:05:19.728Z,1.70
2023-02-22T07:07:48.908Z,1.90
2023-02-22T07:10:22.958Z,1.90
2023-02-22T07:12:52.546Z,2.10
2023-02-22T07:15:22.412Z,2.20
2023-02-22T07:17:50.999Z,2.30
2023-02-22T07:20:20.694Z,2.00
2023-02-22T07:22:49.607Z,2.00
2023-02-22T07:25:17.269Z,2.10
2023-02-22T07:27:44.965Z,2.00
2023-02-22T07:30:24.967Z,2.10
2023-02-22T07:32:54.552Z,2.20
2023-02-22T07:35:33.396Z,2.20
2023-02-22T07:38:00.705Z,2.00
2023-02-22T07:40:28.348Z,1.90
2023-02-22T07:42:57.116Z,2.00
2023-02-22T07:45:26.392Z,2.00
2023-02-22T07:47:53.804Z,2.00
2023-02-22T07:50:22.716Z,2.10
2023-02-22T07:52:53.618Z,2.00
2023-02-22T07:55:24.339Z,1.90
2023-02-22T07:57:54.231Z,1.80
2023-02-22T08:00:26.785Z,1.90
2023-02-22T08:02:55.156Z,1.80
2023-02-22T08:05:24.989Z,3.10
2023-02-22T08:07:52.467Z,2.30
2023-02-22T08:10:22.376Z,2.00
2023-02-22T08:12:50.283Z,2.20
2023-02-22T08:15:24.382Z,1.80
2023-02-22T08:17:53.420Z,2.10
2023-02-22T08:20:20.571Z,2.00
2023-02-22T08:22:48.554Z,2.00
2023-02-22T08:25:17.938Z,2.20
2023-02-22T08:27:45.798Z,2.50
2023-02-22T08:30:23.749Z,2.40
2023-02-22T08:32:51.729Z,2.40
2023-02-22T08:35:20.835Z,2.30
2023-02-22T08:37:52.163Z,2.30
2023-02-22T08:40:21.790Z,2.40
2023-02-22T08:42:49.285Z,2.70
2023-02-22T08:45:16.819Z,2.70
2023-02-22T08:47:44.257Z,2.80
2023-02-22T08:50:27.178Z,3.10
2023-02-22T08:52:56.883Z,2.80
2023-02-22T08:55:25.827Z,2.50
2023-02-22T08:57:53.139Z,2.60
2023-02-22T09:00:24.704Z,3.00
2023-02-22T09:02:52.633Z,2.50
2023-02-22T09:05:20.381Z,2.40
2023-02-22T09:07:47.785Z,3.00
2023-02-22T09:10:19.541Z,2.50
2023-02-22T09:12:46.798Z,3.40
2023-02-22T09:17:45.019Z,3.00
2023-02-22T09:22:40.624Z,2.60
2023-02-22T09:25:16.713Z,3.20
2023-02-22T09:27:46.771Z,3.10
2023-02-22T09:30:34.384Z,3.10
2023-02-22T09:33:12.731Z,2.70
2023-02-22T09:35:46.418Z,3.00
2023-02-22T09:38:23.036Z,3.50
2023-02-22T09:40:54.361Z,3.20
2023-02-22T09:43:35.777Z,3.00
2023-02-22T09:46:13.773Z,2.80
2023-02-22T09:49:05.441Z,3.10
2023-02-22T09:51:45.311Z,3.20
2023-02-22T09:54:58.942Z,3.70
2023-02-22T09:57:34.960Z,3.00
2023-02-22T10:00:16.676Z,3.10
2023-02-22T10:03:01.031Z,4.40
2023-02-22T10:05:44.019Z,3.10
2023-02-22T10:08:18.962Z,3.60
2023-02-22T10:10:52.683Z,3.60
2023-02-22T10:13:42.141Z,4.10
2023-02-22T10:16:34.264Z,3.90
2023-02-22T10:19:28.886Z,3.60
2023-02-22T10:22:07.885Z,3.40
2023-02-22T10:24:47.611Z,3.10
2023-02-22T10:27:28.295Z,3.40
2023-02-22T10:30:00.489Z,3.50
2023-02-22T10:32:35.502Z,4.00
2023-02-22T10:35:06.479Z,3.40
2023-02-22T10:37:34.795Z,4.00
2023-02-22T10:40:17.430Z,4.00
2023-02-22T10:42:45.104Z,4.10
2023-02-22T10:45:33.037Z,4.10
2023-02-22T10:48:08.412Z,3.50
2023-02-22T10:50:39.787Z,4.50
2023-02-22T10:53:08.473Z,4.10
2023-02-22T10:55:35.853Z,4.70
2023-02-22T10:58:06.974Z,4.10
2023-02-22T11:00:37.971Z,4.00
2023-02-22T11:03:21.951Z,4.30
2023-02-22T11:05:49.481Z,4.10
2023-02-22T11:08:26.219Z,4.40
2023-02-22T11:10:55.789Z,4.10
2023-02-22T11:13:37.621Z,4.30
2023-02-22T11:16:40.360Z,4.30
2023-02-22T11:19:16.285Z,4.20
2023-02-22T11:21:44.767Z,4.60
2023-02-22T11:24:15.677Z,4.60
2023-02-22T11:26:46.744Z,4.80
2023-02-22T11:29:27.703Z,4.50
2023-02-22T11:31:55.755Z,4.30
2023-02-22T11:34:33.459Z,4.90
2023-02-22T11:37:22.640Z,4.60
2023-02-22T11:40:22.391Z,4.90
2023-02-22T11:43:08.519Z,5.30
2023-02-22T11:45:37.423Z,5.40
2023-02-22T11:48:08.338Z,5.40
2023-02-22T11:51:00.041Z,5.20
2023-02-22T11:53:50.862Z,5.20
2023-02-22T11:56:37.004Z,5.30
2023-02-22T11:59:34.454Z,5.00
2023-02-22T12:02:20.549Z,5.00
2023-02-22T12:05:08.376Z,5.20
2023-02-22T12:07:46.183Z,5.00
2023-02-22T12:10:25.627Z,5.00
2023-02-22T12:13:17.821Z,5.00
2023-02-22T12:16:02.228Z,4.60
2023-02-22T12:18:54.611Z,4.90
2023-02-22T12:21:23.535Z,5.10
2023-02-22T12:24:02.332Z,4.70
2023-02-22T12:26:41.757Z,4.60
2023-02-22T12:29:26.121Z,4.20
2023-02-22T12:32:11.369Z,4.80
2023-02-22T12:35:21.562Z,4.40
2023-02-22T12:37:59.945Z,4.10
2023-02-22T12:40:37.419Z,3.70
2023-02-22T12:43:28.898Z,4.00
2023-02-22T12:46:12.123Z,3.70
2023-02-22T12:49:04.008Z,3.80
2023-02-22T12:52:15.758Z,4.30
2023-02-22T12:54:53.831Z,4.50
2023-02-22T12:57:45.469Z,4.00
2023-02-22T13:00:20.266Z,3.60
2023-02-22T13:02:54.491Z,3.90
2023-02-22T13:08:16.852Z,3.90
2023-02-22T13:10:53.285Z,4.10
2023-02-22T13:13:38.436Z,3.80
2023-02-22T13:16:30.283Z,3.80
2023-02-22T13:19:25.210Z,4.00
2023-02-22T13:22:04.414Z,3.90
2023-02-22T13:24:58.609Z,4.00
2023-02-22T13:27:39.200Z,3.70
2023-02-22T13:30:33.545Z,3.80
2023-02-22T13:33:29.641Z,3.70
2023-02-22T13:36:02.945Z,3.50
2023-02-22T13:39:04.233Z,3.40
2023-02-22T13:44:36.130Z,3.70
2023-02-22T13:47:36.640Z,3.80
2023-02-22T13:50:22.762Z,3.70
2023-02-22T13:52:52.002Z,3.00
2023-02-22T13:55:27.176Z,3.00
2023-02-22T13:58:05.614Z,3.20
2023-02-22T14:00:48.259Z,3.00
2023-02-22T14:03:15.833Z,3.00
2023-02-22T14:05:42.952Z,3.10
2023-02-22T14:08:19.571Z,3.10
2023-02-22T14:10:51.587Z,3.20
2023-02-22T14:13:22.666Z,3.20
2023-02-22T14:16:07.737Z,3.20
2023-02-22T14:18:41.488Z,3.20
2023-02-22T14:21:20.570Z,3.00
2023-02-22T14:23:50.756Z,3.20
2023-02-22T14:26:26.846Z,3.00
2023-02-22T14:28:57.875Z,3.00
2023-02-22T14:31:58.223Z,3.20
2023-02-22T14:34:55.656Z,3.10
2023-02-22T14:37:36.354Z,3.20
2023-02-22T14:40:13.003Z,3.60
2023-02-22T14:42:48.535Z,4.20
2023-02-22T14:45:30.103Z,3.40
2023-02-22T14:48:18.217Z,3.30
2023-02-22T14:50:56.776Z,3.30
2023-02-22T14:53:30.038Z,3.20
2023-02-22T14:56:17.691Z,3.50
2023-02-22T14:58:49.535Z,2.70
2023-02-22T15:01:49.092Z,3.00
2023-02-22T15:04:31.188Z,3.00
2023-02-22T15:07:00.971Z,3.00
2023-02-22T15:09:34.467Z,3.10
2023-02-22T15:12:05.667Z,4.80
2023-02-22T15:14:38.984Z,3.20
2023-02-22T15:17:21.558Z,3.00
2023-02-22T15:19:53.565Z,3.20
2023-02-22T15:22:27.131Z,2.80
2023-02-22T15:25:04.004Z,2.60
2023-02-22T15:27:36.875Z,3.20
2023-02-22T15:30:16.941Z,3.00
2023-02-22T15:33:01.289Z,2.50
2023-02-22T15:35:33.324Z,2.50
2023-02-22T15:38:06.189Z,2.90
2023-02-22T15:40:34.613Z,2.70
2023-02-22T15:43:08.928Z,2.70
2023-02-22T15:45:42.890Z,3.10
2023-02-22T15:48:11.636Z,2.60
2023-02-22T15:50:39.289Z,2.80
2023-02-22T15:53:23.832Z,2.60
2023-02-22T15:55:57.728Z,2.90
2023-02-22T15:58:30.177Z,2.30
2023-02-22T16:01:06.638Z,2.50
2023-02-22T16:03:45.044Z,2.40
2023-02-22T16:06:28.518Z,2.30
2023-02-22T16:08:59.125Z,2.50
2023-02-22T16:11:33.435Z,2.40
2023-02-22T16:14:04.964Z,2.20
2023-02-22T16:16:41.558Z,2.40
2023-02-22T16:19:42.113Z,2.60
2023-02-22T16:22:34.046Z,2.60
2023-02-22T16:25:19.547Z,2.60
2023-02-22T16:27:50.414Z,2.20
2023-02-22T16:32:54.931Z,2.20
2023-02-22T16:35:28.650Z,2.60
2023-02-22T16:37:59.458Z,2.50
2023-02-22T16:40:34.552Z,2.90
2023-02-22T16:43:12.341Z,2.80
2023-02-22T16:45:42.382Z,2.00
2023-02-22T16:48:27.929Z,3.10
2023-02-22T16:50:58.498Z,2.70
2023-02-22T16:53:27.914Z,2.50
2023-02-22T16:56:02.322Z,2.30
2023-02-22T16:58:33.888Z,2.30
2023-02-22T17:01:06.708Z,3.20
2023-02-22T17:03:33.896Z,2.50
2023-02-22T17:06:01.591Z,2.70
2023-02-22T17:08:28.676Z,2.60
2023-02-22T17:10:57.610Z,2.60
2023-02-22T17:13:27.479Z,2.60
2023-02-22T17:15:55.945Z,2.60
2023-02-22T17:18:28.362Z,2.40
2023-02-22T17:20:55.965Z,2.40
2023-02-22T17:23:24.088Z,1.90
2023-02-22T17:25:53.618Z,2.00
2023-02-22T17:28:23.635Z,2.20
2023-02-22T17:30:52.035Z,2.00
2023-02-22T17:33:27.353Z,1.80
2023-02-22T17:35:59.168Z,2.00
2023-02-22T17:40:59.326Z,2.10
2023-02-22T17:43:30.573Z,1.80
2023-02-22T17:45:58.032Z,2.30
2023-02-22T17:48:25.529Z,2.60
2023-02-22T17:53:22.827Z,1.90
2023-02-22T17:55:50.443Z,2.50
2023-02-22T17:58:18.789Z,2.10
2023-02-22T18:00:48.632Z,1.80
2023-02-22T18:03:25.724Z,1.70
2023-02-22T18:05:59.317Z,1.90
2023-02-22T18:08:32.351Z,2.00
2023-02-22T18:11:05.127Z,2.00
2023-02-22T18:13:32.171Z,1.80
2023-02-22T18:16:00.308Z,2.00
2023-02-22T18:18:28.379Z,4.40
2023-02-22T18:20:59.410Z,2.10
2023-02-22T18:23:28.668Z,1.40
2023-02-22T18:26:10.273Z,2.20
2023-02-22T18:28:38.612Z,1.60
2023-02-22T18:31:17.474Z,2.30
2023-02-22T18:33:49.488Z,2.00
2023-02-22T18:36:22.819Z,2.10
2023-02-22T18:38:52.135Z,2.20
2023-02-22T18:41:25.193Z,1.90
2023-02-22T18:43:56.295Z,2.20
2023-02-22T18:46:25.063Z,2.10
2023-02-22T18:48:56.687Z,1.90
2023-02-22T18:51:26.940Z,1.70
2023-02-22T18:54:00.080Z,2.00
2023-02-22T18:56:33.873Z,1.80
2023-02-22T18:59:02.936Z,1.70
2023-02-22T19:01:35.857Z,1.80
2023-02-22T19:04:03.043Z,1.90
2023-02-22T19:06:30.832Z,1.90
2023-02-22T19:11:30.753Z,1.90
2023-02-22T19:13:58.668Z,1.80
2023-02-22T19:16:27.148Z,2.00
2023-02-22T19:18:57.380Z,2.00
2023-02-22T19:21:27.832Z,2.10
2023-02-22T19:24:00.708Z,1.70
2023-02-22T19:26:29.422Z,1.60
2023-02-22T19:29:00.503Z,1.60
2023-02-22T19:31:31.477Z,1.90
2023-02-22T19:34:09.584Z,1.80
2023-02-22T19:36:39.071Z,1.70
2023-02-22T19:39:09.094Z,2.00
2023-02-22T19:41:39.790Z,2.50
2023-02-22T19:44:07.332Z,1.60
2023-02-22T19:46:40.955Z,1.70
2023-02-22T19:49:08.337Z,1.20
2023-02-22T19:51:35.861Z,1.10
2023-02-22T19:54:06.478Z,1.20
2023-02-22T19:56:35.495Z,1.50
2023-02-22T19:59:09.588Z,1.80
2023-02-22T20:01:39.582Z,2.00
2023-02-22T20:04:14.058Z,1.50
2023-02-22T20:06:44.026Z,1.40
2023-02-22T20:09:14.095Z,1.30
2023-02-22T20:11:41.395Z,1.30
2023-02-22T20:14:08.605Z,1.10
2023-02-22T20:16:36.029Z,1.40
2023-02-22T20:19:03.576Z,1.30
2023-02-22T20:21:34.028Z,1.00
2023-02-22T20:24:08.975Z,1.30
2023-02-22T20:26:38.573Z,1.30
2023-02-22T20:29:11.642Z,1.30
2023-02-22T20:31:41.197Z,1.10
2023-02-22T20:34:09.855Z,2.10
2023-02-22T20:36:39.722Z,1.50
2023-02-22T20:39:07.696Z,1.70
2023-02-22T20:41:36.173Z,1.20
2023-02-22T20:44:06.977Z,1.40
2023-02-22T20:46:37.612Z,1.50
2023-02-22T20:49:09.347Z,1.20
2023-02-22T20:51:39.335Z,1.20
2023-02-22T20:54:08.492Z,1.50
2023-02-22T20:56:35.906Z,1.40
2023-02-22T20:59:04.116Z,0.90
2023-02-22T21:01:32.100Z,1.20
2023-02-22T21:04:07.673Z,1.30
2023-02-22T21:06:35.762Z,1.30
2023-02-22T21:09:07.459Z,1.10
2023-02-22T21:11:35.603Z,1.10
2023-02-22T21:14:03.518Z,1.20
2023-02-22T21:16:33.955Z,1.10
2023-02-22T21:19:04.116Z,1.00
2023-02-22T21:21:32.153Z,2.10
2023-02-22T21:24:04.053Z,0.90
2023-02-22T21:26:34.441Z,1.00
2023-02-22T21:29:04.833Z,0.80
2023-02-22T21:31:33.980Z,0.70
2023-02-22T21:34:01.917Z,0.30
2023-02-22T21:36:29.555Z,0.70
2023-02-22T21:39:00.020Z,0.50
2023-02-22T21:41:29.233Z,0.40
2023-02-22T21:43:57.674Z,0.40
2023-02-22T21:46:26.626Z,0.10
2023-02-22T21:48:53.932Z,0.30
2023-02-22T21:51:25.470Z,0.30
2023-02-22T21:53:54.388Z,0.20
2023-02-22T21:56:24.601Z,0.20
2023-02-22T21:59:00.059Z,0.20
2023-02-22T22:01:29.738Z,-0.20
2023-02-22T22:03:59.891Z,0.10
2023-02-22T22:06:29.040Z,0.20
2023-02-22T22:08:57.360Z,0.10
2023-02-22T22:11:25.288Z,-0.20
2023-02-22T22:13:59.690Z,-0.20
2023-02-22T22:18:57.789Z,-0.20
2023-02-22T22:21:25.932Z,-0.50
2023-02-22T22:23:57.338Z,-0.40
2023-02-22T22:26:26.067Z,-0.10
2023-02-22T22:28:56.228Z,-0.40
2023-02-22T22:31:25.960Z,-0.20
2023-02-22T22:33:54.892Z,-0.30
2023-02-22T22:36:23.845Z,-0.50
2023-02-22T22:38:55.127Z,-0.40
2023-02-22T22:41:22.747Z,-0.30
2023-02-22T22:43:52.519Z,-0.60
2023-02-22T22:46:20.484Z,-0.70
2023-02-22T22:48:48.036Z,-0.40
2023-02-22T22:51:20.200Z,-0.40
2023-02-22T22:53:49.332Z,-0.60
2023-02-22T22:56:19.660Z,-0.60
2023-02-22T22:58:49.450Z,-0.50
2023-02-22T23:01:20.348Z,-0.60
2023-02-22T23:03:54.907Z,-1.10
2023-02-22T23:06:34.786Z,-0.70
2023-02-22T23:09:14.464Z,-0.50
2023-02-22T23:11:46.803Z,-0.50
2023-02-22T23:14:19.433Z,-0.50
2023-02-22T23:16:48.272Z,-0.60
2023-02-22T23:19:16.178Z,-1.20
2023-02-22T23:21:44.019Z,-0.80
2023-02-22T23:24:17.319Z,-0.90
2023-02-22T23:26:48.798Z,-0.70
2023-02-22T23:29:21.592Z,-0.80
2023-02-22T23:31:50.443Z,-0.80
2023-02-22T23:34:21.130Z,-0.90
2023-02-22T23:36:49.702Z,-0.90
2023-02-22T23:39:22.265Z,-0.50
2023-02-22T23:41:54.067Z,-0.60
2023-02-22T23:44:21.945Z,-0.70
2023-02-22T23:46:55.137Z,-1.00
2023-02-22T23:49:35.950Z,-0.80
2023-02-22T23:52:04.222Z,-0.50
2023-02-22T23:54:36.266Z,-0.80
2023-02-22T23:57:04.573Z,-1.10
2023-02-22T23:59:33.194Z,-1.40
